sensor_id;sensor_type;location;lat;lon;timestamp;pressure;altitude;pressure_sealevel;temperature;humidity
28648;BME280;17137;51.494;-0.262;2023-05-09T00:00:24;50252.21;;;-145.72;100.00
28648;BME280;17137;51.494;-0.262;2023-05-09T00:00:55;50247.04;;;-145.72;100.00
28648;BME280;17137;51.494;-0.262;2023-05-09T00:01:25;50256.53;;;-145.72;100.00
28648;BME280;17137;51.494;-0.262;2023-05-09T00:01:55;50267.87;;;-145.72;100.00
28648;BME280;17137;51.494;-0.262;2023-05-09T00:02:25;50256.53;;;-145.72;100.00
28648;BME280;17137;51.494;-0.262;2023-05-09T00:02:55;50259.61;;;-145.72;100.00
28648;BME280;17137;51.494;-0.262;2023-05-09T00:03:26;50258.25;;;-145.72;100.00
28648;BME280;17137;51.494;-0.262;2023-05-09T00:03:57;50250.36;;;-145.72;100.00
28648;BME280;17137;51.494;-0.262;2023-05-09T00:04:27;50256.77;;;-145.72;100.00
28648;BME280;17137;51.494;-0.262;2023-05-09T00:04:57;50247.40;;;-145.72;100.00
28648;BME280;17137;51.494;-0.262;2023-05-09T00:05:28;50259.49;;;-145.72;100.00
28648;BME280;17137;51.494;-0.262;2023-05-09T00:05:58;50256.28;;;-145.72;100.00
28648;BME280;17137;51.494;-0.262;2023-05-09T00:06:28;50249.01;;;-145.72;100.00
28648;BME280;17137;51.494;-0.262;2023-05-09T00:06:59;50250.36;;;-145.72;100.00
28648;BME280;17137;51.494;-0.262;2023-05-09T00:07:29;50253.20;;;-145.72;100.00
28648;BME280;17137;51.494;-0.262;2023-05-09T00:07:59;50246.91;;;-145.72;100.00
28648;BME280;17137;51.494;-0.262;2023-05-09T00:08:29;50263.92;;;-145.72;100.00
28648;BME280;17137;51.494;-0.262;2023-05-09T00:09:00;50256.90;;;-145.72;100.00
28648;BME280;17137;51.494;-0.262;2023-05-09T00:09:30;50246.17;;;-145.72;100.00
28648;BME280;17137;51.494;-0.262;2023-05-09T00:10:00;50244.57;;;-145.72;100.00
28648;BME280;17137;51.494;-0.262;2023-05-09T00:10:30;50252.09;;;-145.72;100.00
28648;BME280;17137;51.494;-0.262;2023-05-09T00:11:01;50261.70;;;-145.72;100.00
28648;BME280;17137;51.494;-0.262;2023-05-09T00:11:31;50263.18;;;-145.72;100.00
28648;BME280;17137;51.494;-0.262;2023-05-09T00:12:02;50248.76;;;-145.72;100.00
28648;BME280;17137;51.494;-0.262;2023-05-09T00:12:32;50251.72;;;-145.72;100.00
28648;BME280;17137;51.494;-0.262;2023-05-09T00:13:03;50249.13;;;-145.72;100.00
28648;BME280;17137;51.494;-0.262;2023-05-09T00:13:33;50247.65;;;-145.72;100.00
28648;BME280;17137;51.494;-0.262;2023-05-09T00:14:03;50254.31;;;-145.72;100.00
28648;BME280;17137;51.494;-0.262;2023-05-09T00:14:34;50244.94;;;-145.72;100.00
28648;BME280;17137;51.494;-0.262;2023-05-09T00:15:05;50238.16;;;-145.72;100.00
28648;BME280;17137;51.494;-0.262;2023-05-09T00:15:35;50237.79;;;-145.72;100.00
28648;BME280;17137;51.494;-0.262;2023-05-09T00:16:06;50243.21;;;-145.72;100.00
28648;BME280;17137;51.494;-0.262;2023-05-09T00:16:36;50241.49;;;-145.72;100.00
28648;BME280;17137;51.494;-0.262;2023-05-09T00:17:07;50253.81;;;-145.72;100.00
28648;BME280;17137;51.494;-0.262;2023-05-09T00:17:37;50245.31;;;-145.72;100.00
28648;BME280;17137;51.494;-0.262;2023-05-09T00:18:07;50240.87;;;-145.72;100.00
28648;BME280;17137;51.494;-0.262;2023-05-09T00:18:38;50247.53;;;-145.72;100.00
28648;BME280;17137;51.494;-0.262;2023-05-09T00:19:08;50245.80;;;-145.72;100.00
28648;BME280;17137;51.494;-0.262;2023-05-09T00:19:38;50246.91;;;-145.72;100.00
28648;BME280;17137;51.494;-0.262;2023-05-09T00:20:09;50246.42;;;-145.72;100.00
28648;BME280;17137;51.494;-0.262;2023-05-09T00:20:40;50249.75;;;-145.72;100.00
28648;BME280;17137;51.494;-0.262;2023-05-09T00:21:10;50234.83;;;-145.72;100.00
28648;BME280;17137;51.494;-0.262;2023-05-09T00:21:41;50246.42;;;-145.72;100.00
28648;BME280;17137;51.494;-0.262;2023-05-09T00:22:11;50239.89;;;-145.72;100.00
28648;BME280;17137;51.494;-0.262;2023-05-09T00:22:41;50248.76;;;-145.72;100.00
28648;BME280;17137;51.494;-0.262;2023-05-09T00:23:12;50235.69;;;-145.72;100.00
28648;BME280;17137;51.494;-0.262;2023-05-09T00:23:42;50232.24;;;-145.72;100.00
28648;BME280;17137;51.494;-0.262;2023-05-09T00:24:12;50232.24;;;-145.72;100.00
28648;BME280;17137;51.494;-0.262;2023-05-09T00:24:43;50246.67;;;-145.72;100.00
28648;BME280;17137;51.494;-0.262;2023-05-09T00:25:13;50240.01;;;-145.72;100.00
28648;BME280;17137;51.494;-0.262;2023-05-09T00:25:43;50241.98;;;-145.72;100.00
28648;BME280;17137;51.494;-0.262;2023-05-09T00:26:15;50234.09;;;-145.72;100.00
28648;BME280;17137;51.494;-0.262;2023-05-09T00:26:45;50230.89;;;-145.72;100.00
28648;BME280;17137;51.494;-0.262;2023-05-09T00:27:15;50244.32;;;-145.72;100.00
28648;BME280;17137;51.494;-0.262;2023-05-09T00:27:46;50246.30;;;-145.72;100.00
28648;BME280;17137;51.494;-0.262;2023-05-09T00:28:16;50244.45;;;-145.72;100.00
28648;BME280;17137;51.494;-0.262;2023-05-09T00:28:46;50239.39;;;-145.72;100.00
28648;BME280;17137;51.494;-0.262;2023-05-09T00:29:17;50238.65;;;-145.72;100.00
28648;BME280;17137;51.494;-0.262;2023-05-09T00:29:47;50233.11;;;-145.72;100.00
28648;BME280;17137;51.494;-0.262;2023-05-09T00:30:17;50246.54;;;-145.72;100.00
28648;BME280;17137;51.494;-0.262;2023-05-09T00:30:48;50241.61;;;-145.72;100.00
28648;BME280;17137;51.494;-0.262;2023-05-09T00:31:19;50234.09;;;-145.72;100.00
28648;BME280;17137;51.494;-0.262;2023-05-09T00:31:49;50240.75;;;-145.72;100.00
28648;BME280;17137;51.494;-0.262;2023-05-09T00:32:19;50246.05;;;-145.72;100.00
28648;BME280;17137;51.494;-0.262;2023-05-09T00:32:50;50236.56;;;-145.72;100.00
28648;BME280;17137;51.494;-0.262;2023-05-09T00:33:20;50232.12;;;-145.72;100.00
28648;BME280;17137;51.494;-0.262;2023-05-09T00:33:55;50232.74;;;-145.72;100.00
28648;BME280;17137;51.494;-0.262;2023-05-09T00:34:26;50232.98;;;-145.72;100.00
28648;BME280;17137;51.494;-0.262;2023-05-09T00:34:56;50228.79;;;-145.72;100.00
28648;BME280;17137;51.494;-0.262;2023-05-09T00:35:27;50234.22;;;-145.72;100.00
28648;BME280;17137;51.494;-0.262;2023-05-09T00:35:57;50238.04;;;-145.72;100.00
28648;BME280;17137;51.494;-0.262;2023-05-09T00:36:27;50215.60;;;-145.72;100.00
28648;BME280;17137;51.494;-0.262;2023-05-09T00:36:58;50241.86;;;-145.72;100.00
28648;BME280;17137;51.494;-0.262;2023-05-09T00:37:29;50243.83;;;-145.72;100.00
28648;BME280;17137;51.494;-0.262;2023-05-09T00:38:00;50232.49;;;-145.72;100.00
28648;BME280;17137;51.494;-0.262;2023-05-09T00:38:30;50226.57;;;-145.72;100.00
28648;BME280;17137;51.494;-0.262;2023-05-09T00:39:00;50235.82;;;-145.72;100.00
28648;BME280;17137;51.494;-0.262;2023-05-09T00:39:30;50229.78;;;-145.72;100.00
28648;BME280;17137;51.494;-0.262;2023-05-09T00:40:02;50237.54;;;-145.72;100.00
28648;BME280;17137;51.494;-0.262;2023-05-09T00:40:32;50236.68;;;-145.72;100.00
28648;BME280;17137;51.494;-0.262;2023-05-09T00:41:02;50244.69;;;-145.72;100.00
28648;BME280;17137;51.494;-0.262;2023-05-09T00:41:33;50235.82;;;-145.72;100.00
28648;BME280;17137;51.494;-0.262;2023-05-09T00:42:03;50223.37;;;-145.72;100.00
28648;BME280;17137;51.494;-0.262;2023-05-09T00:42:34;50232.61;;;-145.72;100.00
28648;BME280;17137;51.494;-0.262;2023-05-09T00:43:04;50235.82;;;-145.72;100.00
28648;BME280;17137;51.494;-0.262;2023-05-09T00:43:35;50229.78;;;-145.72;100.00
28648;BME280;17137;51.494;-0.262;2023-05-09T00:44:05;50228.54;;;-145.72;100.00
28648;BME280;17137;51.494;-0.262;2023-05-09T00:44:35;50231.87;;;-145.72;100.00
28648;BME280;17137;51.494;-0.262;2023-05-09T00:45:07;50237.30;;;-145.72;100.00
28648;BME280;17137;51.494;-0.262;2023-05-09T00:45:37;50248.14;;;-145.72;100.00
28648;BME280;17137;51.494;-0.262;2023-05-09T00:46:08;50225.96;;;-145.72;100.00
28648;BME280;17137;51.494;-0.262;2023-05-09T00:46:38;50238.65;;;-145.72;100.00
28648;BME280;17137;51.494;-0.262;2023-05-09T00:47:09;50240.99;;;-145.72;100.00
28648;BME280;17137;51.494;-0.262;2023-05-09T00:47:40;50242.72;;;-145.72;100.00
28648;BME280;17137;51.494;-0.262;2023-05-09T00:48:10;50234.22;;;-145.72;100.00
28648;BME280;17137;51.494;-0.262;2023-05-09T00:48:41;50236.43;;;-145.72;100.00
28648;BME280;17137;51.494;-0.262;2023-05-09T00:49:11;50238.16;;;-145.72;100.00
28648;BME280;17137;51.494;-0.262;2023-05-09T00:49:42;50237.05;;;-145.72;100.00
28648;BME280;17137;51.494;-0.262;2023-05-09T00:50:12;50231.87;;;-145.72;100.00
28648;BME280;17137;51.494;-0.262;2023-05-09T00:50:42;50229.41;;;-145.72;100.00
28648;BME280;17137;51.494;-0.262;2023-05-09T00:51:13;50220.66;;;-145.72;100.00
28648;BME280;17137;51.494;-0.262;2023-05-09T00:51:43;50229.41;;;-145.72;100.00
28648;BME280;17137;51.494;-0.262;2023-05-09T00:52:14;50236.80;;;-145.72;100.00
28648;BME280;17137;51.494;-0.262;2023-05-09T00:52:44;50234.22;;;-145.72;100.00
28648;BME280;17137;51.494;-0.262;2023-05-09T00:53:14;50237.79;;;-145.72;100.00
28648;BME280;17137;51.494;-0.262;2023-05-09T00:53:45;50240.13;;;-145.72;100.00
28648;BME280;17137;51.494;-0.262;2023-05-09T00:54:15;50236.31;;;-145.72;100.00
28648;BME280;17137;51.494;-0.262;2023-05-09T00:54:46;50246.54;;;-145.72;100.00
28648;BME280;17137;51.494;-0.262;2023-05-09T00:55:16;50245.19;;;-145.72;100.00
28648;BME280;17137;51.494;-0.262;2023-05-09T00:55:47;50239.76;;;-145.72;100.00
28648;BME280;17137;51.494;-0.262;2023-05-09T00:56:17;50225.83;;;-145.72;100.00
28648;BME280;17137;51.494;-0.262;2023-05-09T00:56:48;50229.28;;;-145.72;100.00
28648;BME280;17137;51.494;-0.262;2023-05-09T00:57:19;50232.12;;;-145.72;100.00
28648;BME280;17137;51.494;-0.262;2023-05-09T00:57:50;50242.60;;;-145.72;100.00
28648;BME280;17137;51.494;-0.262;2023-05-09T00:58:20;50231.87;;;-145.72;100.00
28648;BME280;17137;51.494;-0.262;2023-05-09T00:58:51;50235.94;;;-145.72;100.00
28648;BME280;17137;51.494;-0.262;2023-05-09T00:59:21;50233.72;;;-145.72;100.00
28648;BME280;17137;51.494;-0.262;2023-05-09T00:59:51;50230.76;;;-145.72;100.00
28648;BME280;17137;51.494;-0.262;2023-05-09T01:00:22;50228.05;;;-145.72;100.00
28648;BME280;17137;51.494;-0.262;2023-05-09T01:00:52;50245.93;;;-145.72;100.00
28648;BME280;17137;51.494;-0.262;2023-05-09T01:01:22;50235.82;;;-145.72;100.00
28648;BME280;17137;51.494;-0.262;2023-05-09T01:01:53;50227.07;;;-145.72;100.00
28648;BME280;17137;51.494;-0.262;2023-05-09T01:02:23;50223.37;;;-145.72;100.00
28648;BME280;17137;51.494;-0.262;2023-05-09T01:02:54;50229.90;;;-145.72;100.00
28648;BME280;17137;51.494;-0.262;2023-05-09T01:03:25;50229.90;;;-145.72;100.00
28648;BME280;17137;51.494;-0.262;2023-05-09T01:03:56;50222.87;;;-145.72;100.00
28648;BME280;17137;51.494;-0.262;2023-05-09T01:04:26;50224.72;;;-145.72;100.00
28648;BME280;17137;51.494;-0.262;2023-05-09T01:04:56;50216.59;;;-145.72;100.00
28648;BME280;17137;51.494;-0.262;2023-05-09T01:05:32;50235.69;;;-145.72;100.00
28648;BME280;17137;51.494;-0.262;2023-05-09T01:06:11;50233.97;;;-145.72;100.00
28648;BME280;17137;51.494;-0.262;2023-05-09T01:06:51;50232.98;;;-145.72;100.00
28648;BME280;17137;51.494;-0.262;2023-05-09T01:07:29;50238.90;;;-145.72;100.00
28648;BME280;17137;51.494;-0.262;2023-05-09T01:08:09;50233.85;;;-145.72;100.00
28648;BME280;17137;51.494;-0.262;2023-05-09T01:08:48;50232.98;;;-145.72;100.00
28648;BME280;17137;51.494;-0.262;2023-05-09T01:09:24;50242.60;;;-145.72;100.00
28648;BME280;17137;51.494;-0.262;2023-05-09T01:10:02;50234.09;;;-145.72;100.00
28648;BME280;17137;51.494;-0.262;2023-05-09T01:10:38;50230.52;;;-145.72;100.00
28648;BME280;17137;51.494;-0.262;2023-05-09T01:11:19;50225.34;;;-145.72;100.00
28648;BME280;17137;51.494;-0.262;2023-05-09T01:11:56;50245.80;;;-145.72;100.00
28648;BME280;17137;51.494;-0.262;2023-05-09T01:12:36;50231.38;;;-145.72;100.00
28648;BME280;17137;51.494;-0.262;2023-05-09T01:13:17;50229.28;;;-145.72;100.00
28648;BME280;17137;51.494;-0.262;2023-05-09T01:13:58;50233.97;;;-145.72;100.00
28648;BME280;17137;51.494;-0.262;2023-05-09T01:14:38;50227.81;;;-145.72;100.00
28648;BME280;17137;51.494;-0.262;2023-05-09T01:15:19;50221.77;;;-145.72;100.00
28648;BME280;17137;51.494;-0.262;2023-05-09T01:15:56;50223.74;;;-145.72;100.00
28648;BME280;17137;51.494;-0.262;2023-05-09T01:16:35;50229.78;;;-145.72;100.00
28648;BME280;17137;51.494;-0.262;2023-05-09T01:17:11;50231.13;;;-145.72;100.00
28648;BME280;17137;51.494;-0.262;2023-05-09T01:17:50;50231.87;;;-145.72;100.00
28648;BME280;17137;51.494;-0.262;2023-05-09T01:18:29;50233.97;;;-145.72;100.00
28648;BME280;17137;51.494;-0.262;2023-05-09T01:19:21;50221.89;;;-145.72;100.00
28648;BME280;17137;51.494;-0.262;2023-05-09T01:20:01;50227.81;;;-145.72;100.00
28648;BME280;17137;51.494;-0.262;2023-05-09T01:20:34;50226.20;;;-145.72;100.00
28648;BME280;17137;51.494;-0.262;2023-05-09T01:21:10;50228.67;;;-145.72;100.00
28648;BME280;17137;51.494;-0.262;2023-05-09T01:21:43;50234.22;;;-145.72;100.00
28648;BME280;17137;51.494;-0.262;2023-05-09T01:22:17;50231.13;;;-145.72;100.00
28648;BME280;17137;51.494;-0.262;2023-05-09T01:22:54;50226.94;;;-145.72;100.00
28648;BME280;17137;51.494;-0.262;2023-05-09T01:23:48;50234.71;;;-145.72;100.00
28648;BME280;17137;51.494;-0.262;2023-05-09T01:24:34;50233.23;;;-145.72;100.00
28648;BME280;17137;51.494;-0.262;2023-05-09T01:25:27;50230.89;;;-145.72;100.00
28648;BME280;17137;51.494;-0.262;2023-05-09T01:26:03;50249.75;;;-145.72;100.00
28648;BME280;17137;51.494;-0.262;2023-05-09T01:26:43;50240.50;;;-145.72;100.00
28648;BME280;17137;51.494;-0.262;2023-05-09T01:27:25;50239.39;;;-145.72;100.00
28648;BME280;17137;51.494;-0.262;2023-05-09T01:28:04;50246.67;;;-145.72;100.00
28648;BME280;17137;51.494;-0.262;2023-05-09T01:28:56;50242.35;;;-145.72;100.00
28648;BME280;17137;51.494;-0.262;2023-05-09T01:29:33;50252.58;;;-145.72;100.00
28648;BME280;17137;51.494;-0.262;2023-05-09T01:30:07;50234.71;;;-145.72;100.00
28648;BME280;17137;51.494;-0.262;2023-05-09T01:30:40;50244.20;;;-145.72;100.00
28648;BME280;17137;51.494;-0.262;2023-05-09T01:31:12;50240.01;;;-145.72;100.00
28648;BME280;17137;51.494;-0.262;2023-05-09T01:31:44;50242.10;;;-145.72;100.00
28648;BME280;17137;51.494;-0.262;2023-05-09T01:32:18;50240.87;;;-145.72;100.00
28648;BME280;17137;51.494;-0.262;2023-05-09T01:32:50;50250.24;;;-145.72;100.00
28648;BME280;17137;51.494;-0.262;2023-05-09T01:33:23;50240.99;;;-145.72;100.00
28648;BME280;17137;51.494;-0.262;2023-05-09T01:33:58;50248.88;;;-145.72;100.00
28648;BME280;17137;51.494;-0.262;2023-05-09T01:34:31;50246.54;;;-145.72;100.00
28648;BME280;17137;51.494;-0.262;2023-05-09T01:35:04;50244.57;;;-145.72;100.00
28648;BME280;17137;51.494;-0.262;2023-05-09T01:35:36;50242.84;;;-145.72;100.00
28648;BME280;17137;51.494;-0.262;2023-05-09T01:36:14;50239.89;;;-145.72;100.00
28648;BME280;17137;51.494;-0.262;2023-05-09T01:36:45;50251.10;;;-145.72;100.00
28648;BME280;17137;51.494;-0.262;2023-05-09T01:37:21;50238.41;;;-145.72;100.00
28648;BME280;17137;51.494;-0.262;2023-05-09T01:37:53;50246.05;;;-145.72;100.00
28648;BME280;17137;51.494;-0.262;2023-05-09T01:38:25;50243.09;;;-145.72;100.00
28648;BME280;17137;51.494;-0.262;2023-05-09T01:38:57;50248.76;;;-145.72;100.00
28648;BME280;17137;51.494;-0.262;2023-05-09T01:39:29;50240.87;;;-145.72;100.00
28648;BME280;17137;51.494;-0.262;2023-05-09T01:40:06;50254.31;;;-145.72;100.00
28648;BME280;17137;51.494;-0.262;2023-05-09T01:40:41;50244.82;;;-145.72;100.00
28648;BME280;17137;51.494;-0.262;2023-05-09T01:41:13;50261.46;;;-145.72;100.00
28648;BME280;17137;51.494;-0.262;2023-05-09T01:41:45;50253.20;;;-145.72;100.00
28648;BME280;17137;51.494;-0.262;2023-05-09T01:42:18;50255.29;;;-145.72;100.00
28648;BME280;17137;51.494;-0.262;2023-05-09T01:42:53;50257.88;;;-145.72;100.00
28648;BME280;17137;51.494;-0.262;2023-05-09T01:43:27;50252.58;;;-145.72;100.00
28648;BME280;17137;51.494;-0.262;2023-05-09T01:44:02;50259.49;;;-145.72;100.00
28648;BME280;17137;51.494;-0.262;2023-05-09T01:44:36;50253.81;;;-145.72;100.00
28648;BME280;17137;51.494;-0.262;2023-05-09T01:45:09;50257.02;;;-145.72;100.00
28648;BME280;17137;51.494;-0.262;2023-05-09T01:46:10;50257.39;;;-145.72;100.00
28648;BME280;17137;51.494;-0.262;2023-05-09T01:46:41;50248.76;;;-145.72;100.00
28648;BME280;17137;51.494;-0.262;2023-05-09T01:47:13;50244.45;;;-145.72;100.00
28648;BME280;17137;51.494;-0.262;2023-05-09T01:47:46;50250.36;;;-145.72;100.00
28648;BME280;17137;51.494;-0.262;2023-05-09T01:48:17;50254.31;;;-145.72;100.00
28648;BME280;17137;51.494;-0.262;2023-05-09T01:48:49;50253.57;;;-145.72;100.00
28648;BME280;17137;51.494;-0.262;2023-05-09T01:49:21;50257.39;;;-145.72;100.00
28648;BME280;17137;51.494;-0.262;2023-05-09T01:49:54;50256.65;;;-145.72;100.00
28648;BME280;17137;51.494;-0.262;2023-05-09T01:50:26;50242.84;;;-145.72;100.00
28648;BME280;17137;51.494;-0.262;2023-05-09T01:50:58;50255.91;;;-145.72;100.00
28648;BME280;17137;51.494;-0.262;2023-05-09T01:51:29;50253.94;;;-145.72;100.00
28648;BME280;17137;51.494;-0.262;2023-05-09T01:52:03;50249.87;;;-145.72;100.00
28648;BME280;17137;51.494;-0.262;2023-05-09T01:52:35;50254.55;;;-145.72;100.00
28648;BME280;17137;51.494;-0.262;2023-05-09T01:53:07;50260.84;;;-145.72;100.00
28648;BME280;17137;51.494;-0.262;2023-05-09T01:53:40;50254.68;;;-145.72;100.00
28648;BME280;17137;51.494;-0.262;2023-05-09T01:54:11;50259.98;;;-145.72;100.00
28648;BME280;17137;51.494;-0.262;2023-05-09T01:54:44;50254.06;;;-145.72;100.00
28648;BME280;17137;51.494;-0.262;2023-05-09T01:55:15;50249.01;;;-145.72;100.00
28648;BME280;17137;51.494;-0.262;2023-05-09T01:55:47;50248.14;;;-145.72;100.00
28648;BME280;17137;51.494;-0.262;2023-05-09T01:56:20;50245.06;;;-145.72;100.00
28648;BME280;17137;51.494;-0.262;2023-05-09T01:56:53;50250.61;;;-145.72;100.00
28648;BME280;17137;51.494;-0.262;2023-05-09T01:57:24;50255.17;;;-145.72;100.00
28648;BME280;17137;51.494;-0.262;2023-05-09T01:57:56;50256.90;;;-145.72;100.00
28648;BME280;17137;51.494;-0.262;2023-05-09T01:58:27;50248.14;;;-145.72;100.00
28648;BME280;17137;51.494;-0.262;2023-05-09T01:59:01;50256.16;;;-145.72;100.00
28648;BME280;17137;51.494;-0.262;2023-05-09T01:59:33;50255.17;;;-145.72;100.00
28648;BME280;17137;51.494;-0.262;2023-05-09T02:00:05;50249.50;;;-145.72;100.00
28648;BME280;17137;51.494;-0.262;2023-05-09T02:00:36;50258.25;;;-145.72;100.00
28648;BME280;17137;51.494;-0.262;2023-05-09T02:01:07;50246.79;;;-145.72;100.00
28648;BME280;17137;51.494;-0.262;2023-05-09T02:01:38;50239.89;;;-145.72;100.00
28648;BME280;17137;51.494;-0.262;2023-05-09T02:02:09;50252.46;;;-145.72;100.00
28648;BME280;17137;51.494;-0.262;2023-05-09T02:02:40;50256.40;;;-145.72;100.00
28648;BME280;17137;51.494;-0.262;2023-05-09T02:03:11;50258.75;;;-145.72;100.00
28648;BME280;17137;51.494;-0.262;2023-05-09T02:03:42;50249.75;;;-145.72;100.00
28648;BME280;17137;51.494;-0.262;2023-05-09T02:04:15;50249.50;;;-145.72;100.00
28648;BME280;17137;51.494;-0.262;2023-05-09T02:04:47;50257.51;;;-145.72;100.00
28648;BME280;17137;51.494;-0.262;2023-05-09T02:05:19;50245.19;;;-145.72;100.00
28648;BME280;17137;51.494;-0.262;2023-05-09T02:05:50;50250.61;;;-145.72;100.00
28648;BME280;17137;51.494;-0.262;2023-05-09T02:06:22;50254.80;;;-145.72;100.00
28648;BME280;17137;51.494;-0.262;2023-05-09T02:06:53;50254.31;;;-145.72;100.00
28648;BME280;17137;51.494;-0.262;2023-05-09T02:07:25;50256.40;;;-145.72;100.00
28648;BME280;17137;51.494;-0.262;2023-05-09T02:07:58;50253.44;;;-145.72;100.00
28648;BME280;17137;51.494;-0.262;2023-05-09T02:08:29;50263.55;;;-145.72;100.00
28648;BME280;17137;51.494;-0.262;2023-05-09T02:09:00;50243.71;;;-145.72;100.00
28648;BME280;17137;51.494;-0.262;2023-05-09T02:09:31;50253.44;;;-145.72;100.00
28648;BME280;17137;51.494;-0.262;2023-05-09T02:10:03;50239.39;;;-145.72;100.00
28648;BME280;17137;51.494;-0.262;2023-05-09T02:10:34;50249.99;;;-145.72;100.00
28648;BME280;17137;51.494;-0.262;2023-05-09T02:11:06;50250.61;;;-145.72;100.00
28648;BME280;17137;51.494;-0.262;2023-05-09T02:11:36;50253.32;;;-145.72;100.00
28648;BME280;17137;51.494;-0.262;2023-05-09T02:12:07;50248.51;;;-145.72;100.00
28648;BME280;17137;51.494;-0.262;2023-05-09T02:12:37;50242.35;;;-145.72;100.00
28648;BME280;17137;51.494;-0.262;2023-05-09T02:13:09;50256.28;;;-145.72;100.00
28648;BME280;17137;51.494;-0.262;2023-05-09T02:13:39;50256.40;;;-145.72;100.00
28648;BME280;17137;51.494;-0.262;2023-05-09T02:14:10;50257.27;;;-145.72;100.00
28648;BME280;17137;51.494;-0.262;2023-05-09T02:14:45;50251.10;;;-145.72;100.00
28648;BME280;17137;51.494;-0.262;2023-05-09T02:15:15;50243.21;;;-145.72;100.00
28648;BME280;17137;51.494;-0.262;2023-05-09T02:15:46;50261.21;;;-145.72;100.00
28648;BME280;17137;51.494;-0.262;2023-05-09T02:16:16;50256.53;;;-145.72;100.00
28648;BME280;17137;51.494;-0.262;2023-05-09T02:16:47;50250.73;;;-145.72;100.00
28648;BME280;17137;51.494;-0.262;2023-05-09T02:17:17;50247.65;;;-145.72;100.00
28648;BME280;17137;51.494;-0.262;2023-05-09T02:17:47;50254.18;;;-145.72;100.00
28648;BME280;17137;51.494;-0.262;2023-05-09T02:18:18;50242.47;;;-145.72;100.00
28648;BME280;17137;51.494;-0.262;2023-05-09T02:18:48;50245.56;;;-145.72;100.00
28648;BME280;17137;51.494;-0.262;2023-05-09T02:19:18;50251.72;;;-145.72;100.00
28648;BME280;17137;51.494;-0.262;2023-05-09T02:19:48;50241.36;;;-145.72;100.00
28648;BME280;17137;51.494;-0.262;2023-05-09T02:20:19;50248.39;;;-145.72;100.00
28648;BME280;17137;51.494;-0.262;2023-05-09T02:20:49;50256.16;;;-145.72;100.00
28648;BME280;17137;51.494;-0.262;2023-05-09T02:21:19;50250.49;;;-145.72;100.00
28648;BME280;17137;51.494;-0.262;2023-05-09T02:21:49;50250.24;;;-145.72;100.00
28648;BME280;17137;51.494;-0.262;2023-05-09T02:22:20;50237.30;;;-145.72;100.00
28648;BME280;17137;51.494;-0.262;2023-05-09T02:22:50;50244.20;;;-145.72;100.00
28648;BME280;17137;51.494;-0.262;2023-05-09T02:23:21;50254.43;;;-145.72;100.00
28648;BME280;17137;51.494;-0.262;2023-05-09T02:23:51;50259.12;;;-145.72;100.00
28648;BME280;17137;51.494;-0.262;2023-05-09T02:24:21;50252.21;;;-145.72;100.00
28648;BME280;17137;51.494;-0.262;2023-05-09T02:24:52;50257.88;;;-145.72;100.00
28648;BME280;17137;51.494;-0.262;2023-05-09T02:25:22;50260.96;;;-145.72;100.00
28648;BME280;17137;51.494;-0.262;2023-05-09T02:25:53;50257.39;;;-145.72;100.00
28648;BME280;17137;51.494;-0.262;2023-05-09T02:26:24;50253.32;;;-145.72;100.00
28648;BME280;17137;51.494;-0.262;2023-05-09T02:26:55;50253.69;;;-145.72;100.00
28648;BME280;17137;51.494;-0.262;2023-05-09T02:27:26;50248.39;;;-145.72;100.00
28648;BME280;17137;51.494;-0.262;2023-05-09T02:27:57;50247.65;;;-145.72;100.00
28648;BME280;17137;51.494;-0.262;2023-05-09T02:28:29;50258.01;;;-145.72;100.00
28648;BME280;17137;51.494;-0.262;2023-05-09T02:29:00;50241.98;;;-145.72;100.00
28648;BME280;17137;51.494;-0.262;2023-05-09T02:29:34;50254.43;;;-145.72;100.00
28648;BME280;17137;51.494;-0.262;2023-05-09T02:30:07;50258.87;;;-145.72;100.00
28648;BME280;17137;51.494;-0.262;2023-05-09T02:30:41;50244.45;;;-145.72;100.00
28648;BME280;17137;51.494;-0.262;2023-05-09T02:31:13;50243.58;;;-145.72;100.00
28648;BME280;17137;51.494;-0.262;2023-05-09T02:31:47;50261.33;;;-145.72;100.00
28648;BME280;17137;51.494;-0.262;2023-05-09T02:32:23;50249.99;;;-145.72;100.00
28648;BME280;17137;51.494;-0.262;2023-05-09T02:33:00;50247.77;;;-145.72;100.00
28648;BME280;17137;51.494;-0.262;2023-05-09T02:33:33;50247.65;;;-145.72;100.00
28648;BME280;17137;51.494;-0.262;2023-05-09T02:34:05;50254.68;;;-145.72;100.00
28648;BME280;17137;51.494;-0.262;2023-05-09T02:34:36;50250.36;;;-145.72;100.00
28648;BME280;17137;51.494;-0.262;2023-05-09T02:35:09;50242.60;;;-145.72;100.00
28648;BME280;17137;51.494;-0.262;2023-05-09T02:35:43;50244.82;;;-145.72;100.00
28648;BME280;17137;51.494;-0.262;2023-05-09T02:36:13;50262.07;;;-145.72;100.00
28648;BME280;17137;51.494;-0.262;2023-05-09T02:36:44;50261.09;;;-145.72;100.00
28648;BME280;17137;51.494;-0.262;2023-05-09T02:37:15;50259.49;;;-145.72;100.00
28648;BME280;17137;51.494;-0.262;2023-05-09T02:37:46;50263.92;;;-145.72;100.00
28648;BME280;17137;51.494;-0.262;2023-05-09T02:38:17;50255.05;;;-145.72;100.00
28648;BME280;17137;51.494;-0.262;2023-05-09T02:38:48;50252.71;;;-145.72;100.00
28648;BME280;17137;51.494;-0.262;2023-05-09T02:39:19;50261.83;;;-145.72;100.00
28648;BME280;17137;51.494;-0.262;2023-05-09T02:39:49;50259.73;;;-145.72;100.00
28648;BME280;17137;51.494;-0.262;2023-05-09T02:40:20;50258.01;;;-145.72;100.00
28648;BME280;17137;51.494;-0.262;2023-05-09T02:40:51;50246.54;;;-145.72;100.00
28648;BME280;17137;51.494;-0.262;2023-05-09T02:41:51;50274.15;;;-145.72;100.00
28648;BME280;17137;51.494;-0.262;2023-05-09T02:42:23;50273.41;;;-145.72;100.00
28648;BME280;17137;51.494;-0.262;2023-05-09T02:42:53;50258.87;;;-145.72;100.00
28648;BME280;17137;51.494;-0.262;2023-05-09T02:43:24;50263.55;;;-145.72;100.00